Time;durP1;ratioP1;P1;durP2;ratioP2;P2;SDS_P1;SDS_P2;PMS_P1;PMS_P2;Temp;Humidity;BMP_temperature;BMP_pressure;BME280_temperature;BME280_humidity;BME280_pressure;Samples;Min_cycle;Max_cycle;Signal;HPM_P1;HPM_P2
2021/12/21 00:00:51;;;;;;;21.90;11.85;;;-1.20;99.90;;;;;;4944163;28;20046;-59
2021/12/21 00:03:17;;;;;;;19.83;10.50;;;-1.20;99.90;;;;;;4914815;28;20129;-59
2021/12/21 00:05:43;;;;;;;20.13;10.65;;;-1.20;99.90;;;;;;4934621;28;20057;-59
2021/12/21 00:08:11;;;;;;;15.77;10.13;;;-1.30;99.90;;;;;;4960965;28;20047;-58
2021/12/21 00:10:39;;;;;;;18.92;10.85;;;-1.30;99.90;;;;;;4961899;28;20066;-59
2021/12/21 00:13:09;;;;;;;18.95;11.23;;;-1.30;99.90;;;;;;4964174;28;20042;-59
2021/12/21 00:16:09;;;;;;;17.20;10.65;;;-1.30;99.90;;;;;;4942662;28;20047;-59
2021/12/21 00:23:47;;;;;;;21.25;11.15;;;-1.30;99.90;;;;;;4961151;28;20089;-60
2021/12/21 00:26:20;;;;;;;15.40;10.38;;;-1.40;99.90;;;;;;4960353;28;20051;-59
2021/12/21 00:29:01;;;;;;;17.98;11.35;;;-1.30;99.90;;;;;;4965582;28;20794;-59
2021/12/21 00:31:29;;;;;;;19.52;10.93;;;-1.30;99.90;;;;;;4946477;28;20485;-59
2021/12/21 00:33:55;;;;;;;20.38;11.75;;;-1.40;99.90;;;;;;4945824;28;20175;-59
2021/12/21 00:36:24;;;;;;;22.60;11.05;;;-1.40;99.90;;;;;;4946165;28;20146;-59
2021/12/21 00:38:51;;;;;;;19.15;11.00;;;-1.40;99.90;;;;;;4944578;28;20074;-59
2021/12/21 00:41:18;;;;;;;16.10;10.40;;;-1.40;99.90;;;;;;4951264;28;20061;-59
2021/12/21 00:43:44;;;;;;;20.42;10.95;;;-1.40;99.90;;;;;;4967001;28;20129;-59
2021/12/21 00:46:11;;;;;;;16.67;10.60;;;-1.50;99.90;;;;;;4950339;28;20047;-59
2021/12/21 00:48:41;;;;;;;18.65;10.82;;;-1.50;99.90;;;;;;4969388;28;20057;-59
2021/12/21 00:51:07;;;;;;;23.45;11.90;;;-1.50;99.90;;;;;;4968014;28;20149;-59
2021/12/21 00:53:37;;;;;;;24.85;11.02;;;-1.50;99.90;;;;;;4968973;28;20035;-59
2021/12/21 00:56:04;;;;;;;23.83;10.32;;;-1.50;99.90;;;;;;4967756;28;20478;-59
2021/12/21 00:58:29;;;;;;;17.63;9.30;;;-1.50;99.90;;;;;;4952546;28;20094;-59
2021/12/21 01:00:56;;;;;;;15.93;9.20;;;-1.50;99.90;;;;;;4969543;28;20086;-58
2021/12/21 01:03:22;;;;;;;18.42;9.35;;;-1.50;99.90;;;;;;4967314;28;20051;-58
2021/12/21 01:05:59;;;;;;;18.10;9.73;;;-1.60;99.90;;;;;;4936177;28;20175;-59
2021/12/21 01:08:29;;;;;;;18.48;8.65;;;-1.60;99.90;;;;;;4964061;28;20508;-59
2021/12/21 01:11:05;;;;;;;11.82;7.75;;;-1.60;99.90;;;;;;4963511;28;20054;-59
2021/12/21 01:13:45;;;;;;;16.35;7.40;;;-1.60;99.90;;;;;;4967379;28;20086;-59
2021/12/21 01:18:55;;;;;;;14.18;7.32;;;-1.70;99.90;;;;;;4950613;28;20097;-59
2021/12/21 01:21:26;;;;;;;13.45;7.85;;;-1.70;99.90;;;;;;4967592;28;20043;-59
2021/12/21 01:27:02;;;;;;;15.52;8.68;;;-1.70;99.90;;;;;;4966612;28;20402;-59
2021/12/21 01:29:24;;;;;;;17.85;9.57;;;-1.70;99.90;;;;;;4938738;28;20494;-59
2021/12/21 01:32:20;;;;;;;23.33;8.98;;;-1.70;99.90;;;;;;4954599;28;20050;-60
2021/12/21 01:35:04;;;;;;;15.93;8.50;;;-1.70;99.90;;;;;;4965154;28;20129;-59
2021/12/21 01:37:32;;;;;;;19.77;9.60;;;-1.70;99.90;;;;;;4951232;28;20498;-59
2021/12/21 01:40:17;;;;;;;17.42;9.25;;;-1.70;99.90;;;;;;4967814;28;20086;-60
2021/12/21 01:43:05;;;;;;;18.17;9.05;;;-1.80;99.90;;;;;;4943793;28;20057;-59
2021/12/21 01:51:01;;;;;;;18.38;9.93;;;-1.80;99.90;;;;;;4963161;28;20487;-58
2021/12/21 01:53:27;;;;;;;18.75;10.05;;;-1.80;99.90;;;;;;4944961;28;20055;-59
2021/12/21 01:55:53;;;;;;;22.48;10.85;;;-1.80;99.90;;;;;;4927987;28;20047;-59
2021/12/21 01:58:19;;;;;;;18.80;9.68;;;-1.80;99.90;;;;;;4948570;28;20065;-59
2021/12/21 02:06:48;;;;;;;22.33;10.95;;;-1.80;99.90;;;;;;4884986;29;20144;-59
2021/12/21 02:09:16;;;;;;;18.77;10.43;;;-1.80;99.90;;;;;;4886811;29;20498;-59
2021/12/21 02:11:42;;;;;;;16.40;9.98;;;-1.80;99.90;;;;;;4885874;29;20045;-59
2021/12/21 02:14:10;;;;;;;15.95;9.57;;;-1.90;99.90;;;;;;4885774;29;20080;-58
2021/12/21 02:16:56;;;;;;;19.05;10.40;;;-1.90;99.90;;;;;;4886313;29;20060;-58
2021/12/21 02:19:29;;;;;;;13.73;9.40;;;-1.90;99.90;;;;;;4885763;29;20611;-59
2021/12/21 02:22:05;;;;;;;;;;;-1.90;99.90;;;;;;4885687;29;20051;-59
2021/12/21 02:24:40;;;;;;;15.32;9.43;;;-1.90;99.90;;;;;;4883394;29;20358;-59
2021/12/21 02:27:18;;;;;;;19.33;9.52;;;-1.90;99.90;;;;;;4867274;29;20076;-59
2021/12/21 02:29:44;;;;;;;17.30;9.30;;;-1.90;99.90;;;;;;4879023;29;20063;-59
2021/12/21 02:32:12;;;;;;;15.98;9.45;;;-1.90;99.90;;;;;;4901009;29;20109;-58
2021/12/21 02:34:38;;;;;;;19.52;9.50;;;-1.90;99.90;;;;;;4868303;29;20575;-59
2021/12/21 02:37:04;;;;;;;18.52;10.38;;;-2.00;99.90;;;;;;4871364;29;20859;-59
2021/12/21 02:39:30;;;;;;;21.30;10.48;;;-2.00;99.90;;;;;;4879275;29;20127;-59
2021/12/21 02:41:56;;;;;;;17.73;10.75;;;-2.00;99.90;;;;;;4885308;29;20041;-58
2021/12/21 02:44:23;;;;;;;20.55;10.15;;;-2.00;99.90;;;;;;4884367;29;20546;-59
2021/12/21 02:46:49;;;;;;;22.27;11.10;;;-2.00;99.90;;;;;;4880777;29;20471;-59
2021/12/21 02:49:16;;;;;;;25.35;12.48;;;-2.00;99.90;;;;;;4867759;29;20044;-59
2021/12/21 02:51:44;;;;;;;23.30;12.02;;;-2.00;99.90;;;;;;4887626;29;20529;-59
2021/12/21 02:54:11;;;;;;;27.52;12.65;;;-2.00;99.90;;;;;;4884559;29;20083;-58
2021/12/21 02:56:37;;;;;;;24.17;11.05;;;-2.00;99.90;;;;;;4872700;29;20071;-59
2021/12/21 02:59:03;;;;;;;17.58;11.20;;;-1.90;99.90;;;;;;4899809;29;20151;-59
2021/12/21 03:01:30;;;;;;;23.40;12.15;;;-2.00;99.90;;;;;;4873609;29;20119;-59
2021/12/21 03:03:56;;;;;;;27.15;12.80;;;-2.00;99.90;;;;;;4885975;29;20279;-59
2021/12/21 03:08:58;;;;;;;23.52;12.20;;;-2.00;99.90;;;;;;4870766;29;20117;-58
2021/12/21 03:11:48;;;;;;;18.73;10.60;;;-2.00;99.90;;;;;;4857148;29;20049;-58
2021/12/21 03:14:14;;;;;;;22.85;12.15;;;-2.00;99.90;;;;;;4872843;29;20392;-59
2021/12/21 03:16:40;;;;;;;24.52;13.60;;;-2.00;99.90;;;;;;4887579;29;20053;-59
2021/12/21 03:19:09;;;;;;;22.42;12.40;;;-2.00;99.90;;;;;;4884961;29;20048;-57
2021/12/21 03:21:36;;;;;;;29.35;13.65;;;-2.00;99.90;;;;;;4886037;29;20496;-59
2021/12/21 03:24:04;;;;;;;27.23;14.60;;;-2.00;99.90;;;;;;4885490;29;20086;-59
2021/12/21 03:26:30;;;;;;;28.27;14.88;;;-2.00;99.90;;;;;;4885075;29;20060;-59
2021/12/21 03:28:56;;;;;;;24.38;13.60;;;-2.00;99.90;;;;;;4853227;29;20063;-58
2021/12/21 03:31:22;;;;;;;22.98;11.68;;;-2.00;99.90;;;;;;4887383;29;20145;-58
2021/12/21 03:33:50;;;;;;;23.15;13.85;;;-2.00;99.90;;;;;;4885831;29;20048;-59
2021/12/21 03:36:16;;;;;;;28.38;15.48;;;-2.00;99.90;;;;;;4880114;29;20044;-59
2021/12/21 03:38:53;;;;;;;29.35;16.70;;;-2.00;99.90;;;;;;4886752;29;20067;-59
2021/12/21 03:41:19;;;;;;;21.67;14.18;;;-2.00;99.90;;;;;;4885754;29;20167;-59
2021/12/21 03:43:46;;;;;;;25.10;13.88;;;-2.00;99.90;;;;;;4882629;29;20067;-59
2021/12/21 03:46:14;;;;;;;18.75;12.05;;;-2.00;99.90;;;;;;4884279;29;20076;-59
2021/12/21 03:48:44;;;;;;;19.33;11.95;;;-2.00;99.90;;;;;;4865614;29;20061;-58
2021/12/21 03:51:10;;;;;;;15.55;11.15;;;-2.00;99.90;;;;;;4885955;29;20053;-59
2021/12/21 03:53:37;;;;;;;18.63;11.65;;;-2.00;99.90;;;;;;4867369;29;20040;-59
2021/12/21 03:58:36;;;;;;;19.02;12.00;;;-2.10;99.90;;;;;;4886308;29;20403;-59
2021/12/21 04:01:03;;;;;;;19.17;11.90;;;-2.20;99.90;;;;;;4884811;29;20052;-59
2021/12/21 04:03:28;;;;;;;19.20;11.45;;;-2.10;99.90;;;;;;4886514;29;20036;-59
2021/12/21 04:05:54;;;;;;;20.30;11.45;;;-2.20;99.90;;;;;;4883587;29;20074;-59
2021/12/21 04:08:20;;;;;;;19.73;11.25;;;-2.20;99.90;;;;;;4865821;29;20161;-59
2021/12/21 04:10:46;;;;;;;17.80;10.65;;;-2.20;99.90;;;;;;4867427;29;20048;-59
2021/12/21 04:13:12;;;;;;;17.88;11.40;;;-2.20;99.90;;;;;;4886442;29;20056;-58
2021/12/21 04:15:42;;;;;;;17.40;11.82;;;-2.20;99.90;;;;;;4886521;29;20119;-59
2021/12/21 04:18:12;;;;;;;21.10;11.63;;;-2.20;99.90;;;;;;4885974;29;20056;-58
2021/12/21 04:20:39;;;;;;;22.77;12.27;;;-2.20;99.90;;;;;;4884344;29;20052;-59
2021/12/21 04:23:05;;;;;;;27.15;12.63;;;-2.20;99.90;;;;;;4884410;29;20044;-58
2021/12/21 04:25:31;;;;;;;20.23;11.70;;;-2.20;99.90;;;;;;4873617;29;20301;-58
2021/12/21 04:27:57;;;;;;;21.40;12.38;;;-2.20;99.90;;;;;;4868676;29;20045;-59
2021/12/21 04:30:23;;;;;;;22.23;12.23;;;-2.20;99.90;;;;;;4871781;29;20052;-58
2021/12/21 04:32:49;;;;;;;20.55;12.05;;;-2.20;99.90;;;;;;4883106;29;20049;-59
2021/12/21 04:35:19;;;;;;;24.25;13.30;;;-2.20;99.90;;;;;;4865670;29;20056;-57
2021/12/21 04:37:54;;;;;;;21.20;13.18;;;-2.20;99.90;;;;;;4885651;29;20052;-58
2021/12/21 04:40:25;;;;;;;25.92;13.32;;;-2.30;99.90;;;;;;4880607;29;20052;-59
2021/12/21 04:42:50;;;;;;;27.05;14.07;;;-2.20;99.90;;;;;;4883906;29;20052;-58
2021/12/21 04:45:16;;;;;;;21.75;14.57;;;-2.20;99.90;;;;;;4887125;29;20452;-59
2021/12/21 04:47:42;;;;;;;28.67;15.00;;;-2.20;99.90;;;;;;4885773;29;20044;-59
2021/12/21 04:50:09;;;;;;;22.77;14.27;;;-2.20;99.90;;;;;;4885529;29;20134;-58
2021/12/21 04:52:35;;;;;;;22.80;13.65;;;-2.20;99.90;;;;;;4884847;29;20136;-59
2021/12/21 04:55:00;;;;;;;23.88;12.95;;;-2.20;99.90;;;;;;4884874;29;20556;-59
2021/12/21 04:57:26;;;;;;;21.75;12.07;;;-2.20;99.90;;;;;;4886204;29;20543;-59
2021/12/21 04:59:52;;;;;;;18.98;11.40;;;-2.20;99.90;;;;;;4867670;29;20067;-59
2021/12/21 05:02:18;;;;;;;19.35;12.43;;;-2.20;99.90;;;;;;4871931;29;20493;-59
2021/12/21 05:04:44;;;;;;;22.30;13.02;;;-2.20;99.90;;;;;;4866664;29;20048;-58
2021/12/21 05:07:10;;;;;;;18.23;11.65;;;-2.30;99.90;;;;;;4865260;29;20056;-59
2021/12/21 05:09:44;;;;;;;18.00;11.88;;;-2.30;99.90;;;;;;4856677;29;20123;-57
2021/12/21 05:12:13;;;;;;;18.42;12.70;;;-2.30;99.90;;;;;;4856926;29;20499;-59
2021/12/21 05:14:39;;;;;;;19.88;11.70;;;-2.20;99.90;;;;;;4852620;29;20481;-59
2021/12/21 05:17:05;;;;;;;22.10;12.50;;;-2.30;99.90;;;;;;4874864;29;20117;-58
2021/12/21 05:19:32;;;;;;;19.10;12.73;;;-2.30;99.90;;;;;;4876197;29;20500;-59
2021/12/21 05:21:58;;;;;;;21.73;11.90;;;-2.40;99.90;;;;;;4886570;29;20048;-58
2021/12/21 05:24:23;;;;;;;18.67;12.23;;;-2.40;99.90;;;;;;4888266;29;20044;-59
2021/12/21 05:26:49;;;;;;;18.75;11.75;;;-2.40;99.90;;;;;;4887339;29;20147;-58
2021/12/21 05:29:15;;;;;;;22.83;11.85;;;-2.30;99.90;;;;;;4887184;29;20048;-59
2021/12/21 05:31:41;;;;;;;20.95;11.90;;;-2.40;99.90;;;;;;4888373;29;20387;-59
2021/12/21 05:34:07;;;;;;;17.50;12.27;;;-2.40;99.90;;;;;;4888378;29;20060;-59
2021/12/21 05:36:33;;;;;;;22.60;11.90;;;-2.40;99.90;;;;;;4886585;29;20044;-59
2021/12/21 05:39:03;;;;;;;23.70;12.65;;;-2.40;99.90;;;;;;4888827;29;20052;-59
2021/12/21 05:41:46;;;;;;;21.35;12.50;;;-2.40;99.90;;;;;;4888663;29;20488;-59
2021/12/21 05:44:13;;;;;;;22.42;12.98;;;-2.40;99.90;;;;;;4884525;29;20124;-59
2021/12/21 05:46:39;;;;;;;22.00;13.27;;;-2.40;99.90;;;;;;4870851;29;20495;-58
2021/12/21 05:49:04;;;;;;;25.77;13.20;;;-2.40;99.90;;;;;;4875040;29;20044;-59
2021/12/21 05:51:30;;;;;;;21.98;13.55;;;-2.40;99.90;;;;;;4883286;29;20049;-59
2021/12/21 05:53:56;;;;;;;22.55;12.02;;;-2.40;99.90;;;;;;4874657;29;20080;-58
2021/12/21 05:56:22;;;;;;;19.77;11.95;;;-2.40;99.90;;;;;;4872484;29;20183;-59
2021/12/21 05:58:49;;;;;;;19.50;12.10;;;-2.40;99.90;;;;;;4888130;29;20438;-58
2021/12/21 06:01:15;;;;;;;18.65;10.95;;;-2.40;99.90;;;;;;4885345;29;20060;-58
2021/12/21 06:03:41;;;;;;;21.42;12.32;;;-2.40;99.90;;;;;;4874759;29;20052;-58
2021/12/21 06:06:12;;;;;;;20.73;12.35;;;-2.40;99.90;;;;;;4886607;29;20069;-59
2021/12/21 06:08:38;;;;;;;21.27;12.57;;;-2.40;99.90;;;;;;4887907;29;20045;-58
2021/12/21 06:11:06;;;;;;;17.20;10.90;;;-2.40;99.90;;;;;;4886406;29;20055;-59
2021/12/21 06:27:19;;;;;;;18.55;12.40;;;-2.50;99.90;;;;;;4814660;29;20061;-59
2021/12/21 06:29:45;;;;;;;20.13;12.25;;;-2.50;99.90;;;;;;4813039;29;20516;-59
2021/12/21 06:32:11;;;;;;;18.40;11.85;;;-2.50;99.90;;;;;;4819412;29;20061;-59
2021/12/21 06:34:37;;;;;;;20.42;11.98;;;-2.50;99.90;;;;;;4886043;29;20040;-59
2021/12/21 06:37:03;;;;;;;21.30;11.90;;;-2.50;99.90;;;;;;4889465;29;20536;-59
2021/12/21 06:39:32;;;;;;;21.67;11.70;;;-2.50;99.90;;;;;;4888495;29;20562;-59
2021/12/21 06:41:58;;;;;;;16.92;11.60;;;-2.50;99.90;;;;;;4873745;29;20052;-59
2021/12/21 06:44:24;;;;;;;20.63;11.40;;;-2.50;99.90;;;;;;4869311;29;20055;-59
2021/12/21 06:51:06;;;;;;;17.02;11.35;;;-2.50;99.90;;;;;;4869221;29;20049;-59
2021/12/21 06:52:38;;;;;;;17.38;10.80;;;-2.50;99.90;;;;;;4837719;29;20057;-59
2021/12/21 06:55:05;;;;;;;23.10;11.02;;;-2.60;99.90;;;;;;4866718;29;20048;-59
2021/12/21 06:57:31;;;;;;;23.48;11.15;;;-2.50;99.90;;;;;;4884158;29;20408;-58
2021/12/21 06:59:58;;;;;;;19.17;11.20;;;-2.50;99.90;;;;;;4867812;29;20200;-59
2021/12/21 07:02:24;;;;;;;19.35;11.30;;;-2.50;99.90;;;;;;4884790;29;20044;-59
2021/12/21 07:04:50;;;;;;;23.80;12.18;;;-2.50;99.90;;;;;;4880099;29;20079;-58
2021/12/21 07:07:17;;;;;;;19.70;11.75;;;-2.50;99.90;;;;;;4867601;29;20056;-59
2021/12/21 07:09:46;;;;;;;18.77;11.65;;;-2.50;99.90;;;;;;4886228;29;20051;-59
2021/12/21 07:18:06;;;;;;;20.13;11.07;;;-2.50;99.90;;;;;;4883227;29;20060;-58
2021/12/21 07:20:20;;;;;;;19.35;11.20;;;-2.60;99.90;;;;;;4883701;29;20057;-58
2021/12/21 07:22:46;;;;;;;21.98;10.27;;;-2.60;99.90;;;;;;4884795;29;20523;-58
2021/12/21 07:25:12;;;;;;;21.55;10.90;;;-2.60;99.90;;;;;;4867096;29;20408;-58
2021/12/21 07:27:38;;;;;;;20.15;11.40;;;-2.50;99.90;;;;;;4883548;29;20163;-57
2021/12/21 07:30:05;;;;;;;19.45;10.75;;;-2.50;99.90;;;;;;4867389;29;20051;-58
2021/12/21 07:32:31;;;;;;;19.85;11.50;;;-2.50;99.90;;;;;;4882656;29;20076;-59
2021/12/21 07:34:58;;;;;;;23.60;11.43;;;-2.60;99.90;;;;;;4883849;29;20569;-58
2021/12/21 07:37:25;;;;;;;18.25;11.07;;;-2.60;99.90;;;;;;4859035;29;20530;-59
2021/12/21 07:39:51;;;;;;;18.05;10.80;;;-2.50;99.90;;;;;;4866804;29;20559;-58
2021/12/21 07:42:19;;;;;;;20.73;11.23;;;-2.60;99.90;;;;;;4870889;29;20053;-59
2021/12/21 07:44:45;;;;;;;19.67;11.43;;;-2.60;99.90;;;;;;4884545;29;20090;-58
2021/12/21 07:47:11;;;;;;;19.02;12.07;;;-2.60;99.90;;;;;;4883867;29;20052;-58
2021/12/21 07:49:37;;;;;;;18.83;12.23;;;-2.60;99.90;;;;;;4865899;29;20518;-58
2021/12/21 07:52:07;;;;;;;22.02;11.98;;;-2.60;99.90;;;;;;4865437;29;20148;-57
2021/12/21 07:54:33;;;;;;;20.48;11.75;;;-2.60;99.90;;;;;;4884245;29;20116;-59
2021/12/21 07:56:59;;;;;;;26.45;12.27;;;-2.50;99.90;;;;;;4851319;29;20104;-58
2021/12/21 07:59:25;;;;;;;24.60;12.88;;;-2.60;99.90;;;;;;4882356;29;20060;-58
2021/12/21 08:01:52;;;;;;;29.20;14.82;;;-2.60;99.90;;;;;;4871633;29;20044;-58
2021/12/21 08:04:21;;;;;;;30.02;13.80;;;-2.60;99.90;;;;;;4867173;29;20048;-56
2021/12/21 08:06:49;;;;;;;26.05;13.07;;;-2.50;99.90;;;;;;4867546;29;20072;-58
2021/12/21 08:09:15;;;;;;;21.48;13.65;;;-2.50;99.90;;;;;;4868909;29;20052;-59
2021/12/21 08:14:07;;;;;;;30.60;13.98;;;-2.40;99.90;;;;;;4883957;29;20052;-58
2021/12/21 08:16:33;;;;;;;26.05;14.52;;;-2.40;99.90;;;;;;4885785;29;20045;-58
2021/12/21 08:18:59;;;;;;;23.20;13.82;;;-2.40;99.90;;;;;;4884849;29;20053;-58
2021/12/21 08:21:26;;;;;;;23.10;13.52;;;-2.40;99.90;;;;;;4884632;29;20135;-59
2021/12/21 08:23:52;;;;;;;26.95;14.98;;;-2.30;99.90;;;;;;4884682;29;20045;-58
2021/12/21 08:26:18;;;;;;;24.85;14.00;;;-2.30;99.90;;;;;;4882943;29;20064;-58
2021/12/21 08:28:44;;;;;;;33.50;14.57;;;-2.30;99.90;;;;;;4885091;29;20553;-58
2021/12/21 08:31:13;;;;;;;25.33;15.13;;;-2.20;99.90;;;;;;4883423;29;20052;-59
2021/12/21 08:33:41;;;;;;;28.23;14.75;;;-2.30;99.90;;;;;;4883428;29;20044;-59
2021/12/21 08:36:08;;;;;;;26.13;14.65;;;-2.20;99.90;;;;;;4879079;29;20519;-59
2021/12/21 08:38:37;;;;;;;34.17;14.80;;;-2.10;99.90;;;;;;4884608;29;20523;-59
2021/12/21 08:41:04;;;;;;;24.92;13.77;;;-2.20;99.90;;;;;;4883693;29;20080;-59
2021/12/21 08:43:32;;;;;;;24.60;14.15;;;-2.10;99.90;;;;;;4885551;29;20052;-59
2021/12/21 08:45:59;;;;;;;26.83;14.43;;;-2.10;99.90;;;;;;4884688;29;20044;-59
2021/12/21 08:48:26;;;;;;;31.08;14.13;;;-2.10;99.90;;;;;;4884183;29;20045;-58
2021/12/21 08:50:54;;;;;;;26.13;13.05;;;-2.00;99.90;;;;;;4885034;29;20037;-61
2021/12/21 08:53:22;;;;;;;21.98;12.65;;;-2.00;99.90;;;;;;4888111;29;20437;-59
2021/12/21 08:55:51;;;;;;;18.90;12.98;;;-2.00;99.90;;;;;;4855861;29;20085;-59
2021/12/21 08:58:18;;;;;;;23.50;13.70;;;-2.00;99.90;;;;;;4888663;29;20080;-59
2021/12/21 09:00:44;;;;;;;24.33;14.02;;;-2.00;99.90;;;;;;4889231;29;20045;-59
2021/12/21 09:03:11;;;;;;;21.60;13.32;;;-2.00;99.90;;;;;;4869766;29;20051;-59
2021/12/21 09:05:39;;;;;;;25.40;13.13;;;-2.00;99.90;;;;;;4882962;29;20060;-58
2021/12/21 09:08:06;;;;;;;22.75;12.52;;;-2.00;99.90;;;;;;4887928;29;20095;-59
2021/12/21 09:10:33;;;;;;;24.33;13.35;;;-2.00;99.90;;;;;;4870952;29;20163;-59
2021/12/21 09:12:59;;;;;;;20.25;12.45;;;-1.90;99.90;;;;;;4884616;29;20044;-58
2021/12/21 09:15:28;;;;;;;23.98;13.85;;;-1.90;99.90;;;;;;4883805;29;20036;-59
2021/12/21 09:17:54;;;;;;;21.35;13.52;;;-1.90;99.90;;;;;;4875413;29;20097;-58
2021/12/21 09:20:22;;;;;;;25.30;13.93;;;-1.90;99.90;;;;;;4863244;29;20052;-58
2021/12/21 09:22:50;;;;;;;25.88;13.15;;;-1.80;99.90;;;;;;4880762;29;20037;-59
2021/12/21 09:25:16;;;;;;;27.00;14.30;;;-1.80;99.90;;;;;;4864801;29;20104;-59
2021/12/21 09:27:43;;;;;;;34.33;14.43;;;-1.90;99.90;;;;;;4875950;29;20057;-59
2021/12/21 09:30:12;;;;;;;25.00;13.30;;;-1.80;99.90;;;;;;4877595;29;20044;-59
2021/12/21 09:32:39;;;;;;;28.30;14.32;;;-1.80;99.90;;;;;;4882383;29;20040;-58
2021/12/21 09:35:06;;;;;;;24.42;14.65;;;-1.70;99.90;;;;;;4882762;29;20144;-59
2021/12/21 09:37:32;;;;;;;29.83;14.50;;;-1.70;99.90;;;;;;4889295;29;20052;-58
2021/12/21 09:39:59;;;;;;;26.42;14.23;;;-1.60;99.90;;;;;;4873316;29;20074;-58
2021/12/21 09:42:29;;;;;;;24.50;14.20;;;-1.60;99.90;;;;;;4883841;29;20052;-58
2021/12/21 09:44:57;;;;;;;27.80;15.00;;;-1.60;99.90;;;;;;4886125;29;20052;-59
2021/12/21 09:47:23;;;;;;;26.17;14.73;;;-1.50;99.90;;;;;;4873224;29;20053;-58
2021/12/21 09:49:50;;;;;;;23.45;15.05;;;-1.40;99.90;;;;;;4869996;29;20547;-59
2021/12/21 09:52:22;;;;;;;24.00;14.75;;;-1.40;99.90;;;;;;4888039;29;20132;-59
2021/12/21 09:54:48;;;;;;;31.15;15.38;;;-1.30;99.90;;;;;;4870044;29;20508;-57
2021/12/21 09:57:16;;;;;;;23.67;14.63;;;-1.20;99.90;;;;;;4885843;29;20534;-59
2021/12/21 09:59:47;;;;;;;28.25;15.82;;;-1.20;99.90;;;;;;4865339;29;20133;-59
2021/12/21 10:02:14;;;;;;;28.30;15.57;;;-1.10;99.90;;;;;;4869053;29;20049;-59
2021/12/21 10:05:03;;;;;;;26.98;14.95;;;-1.00;99.90;;;;;;4854740;29;20064;-58
2021/12/21 10:07:29;;;;;;;23.17;15.48;;;-0.90;99.90;;;;;;4886628;29;20053;-60
2021/12/21 10:10:10;;;;;;;25.17;15.70;;;-0.80;99.90;;;;;;4885525;29;20041;-59
2021/12/21 10:12:44;;;;;;;29.40;15.70;;;-0.70;99.90;;;;;;4869461;29;20059;-59
2021/12/21 10:15:17;;;;;;;26.40;15.68;;;-0.50;99.90;;;;;;4884193;29;20048;-59
2021/12/21 10:17:54;;;;;;;30.40;16.00;;;-0.40;99.90;;;;;;4869136;29;20048;-59
2021/12/21 10:20:32;;;;;;;29.00;16.30;;;-0.20;99.90;;;;;;4884863;29;20053;-59
2021/12/21 10:22:58;;;;;;;27.15;16.73;;;0.00;99.90;;;;;;4884974;29;20056;-59
2021/12/21 10:25:25;;;;;;;28.63;16.77;;;0.10;99.90;;;;;;4884808;29;20048;-59
2021/12/21 10:27:52;;;;;;;29.85;15.68;;;0.20;99.90;;;;;;4868102;29;20052;-59
2021/12/21 10:30:18;;;;;;;28.23;15.55;;;0.40;99.90;;;;;;4873861;29;20059;-60
2021/12/21 10:32:54;;;;;;;31.55;17.23;;;0.50;99.90;;;;;;4872417;29;20205;-60
2021/12/21 10:35:29;;;;;;;26.98;15.77;;;0.70;99.90;;;;;;4885160;29;20051;-60
2021/12/21 10:37:55;;;;;;;26.25;14.35;;;0.80;99.90;;;;;;4886474;29;20060;-59
2021/12/21 10:40:27;;;;;;;26.00;14.77;;;1.00;99.90;;;;;;4885425;29;20488;-60
2021/12/21 10:43:05;;;;;;;31.00;14.60;;;1.10;99.90;;;;;;4884083;29;20537;-59
2021/12/21 10:45:42;;;;;;;31.42;15.68;;;1.30;99.90;;;;;;4884539;29;20080;-59
2021/12/21 10:48:19;;;;;;;27.15;15.50;;;1.40;99.90;;;;;;4873017;29;20048;-60
2021/12/21 10:50:47;;;;;;;26.58;14.98;;;1.50;99.90;;;;;;4872035;29;20084;-59
2021/12/21 10:53:27;;;;;;;24.10;13.07;;;1.70;99.90;;;;;;4879846;29;20572;-61
2021/12/21 10:56:08;;;;;;;20.70;12.25;;;1.80;99.90;;;;;;4865113;29;20100;-60
2021/12/21 10:58:42;;;;;;;28.40;12.68;;;2.00;99.90;;;;;;4870650;29;20447;-60
2021/12/21 11:01:20;;;;;;;24.60;13.80;;;2.10;99.90;;;;;;4866277;29;20248;-59
2021/12/21 11:03:53;;;;;;;24.35;14.43;;;2.20;99.90;;;;;;4871733;29;20055;-60
2021/12/21 11:06:22;;;;;;;25.02;13.50;;;2.40;99.90;;;;;;4865863;29;20061;-59
2021/12/21 11:08:53;;;;;;;24.30;12.32;;;2.50;99.90;;;;;;4872208;29;20048;-60
2021/12/21 11:11:32;;;;;;;23.70;13.48;;;2.60;99.90;;;;;;4867275;29;20515;-59
2021/12/21 11:14:06;;;;;;;21.73;13.55;;;2.70;99.90;;;;;;4884149;29;20036;-60
2021/12/21 11:16:43;;;;;;;20.02;10.88;;;2.80;99.90;;;;;;4884734;29;20148;-60
2021/12/21 11:19:15;;;;;;;20.02;11.13;;;2.80;99.90;;;;;;4871031;29;20080;-60
2021/12/21 11:21:43;;;;;;;14.82;10.75;;;2.90;99.90;;;;;;4883767;29;20052;-60
2021/12/21 11:24:11;;;;;;;19.67;10.68;;;2.80;99.90;;;;;;4883419;29;20090;-60
2021/12/21 11:26:38;;;;;;;19.60;9.90;;;2.80;99.90;;;;;;4869118;29;20116;-60
2021/12/21 11:29:12;;;;;;;21.80;11.75;;;2.80;99.90;;;;;;4869314;29;20053;-60
2021/12/21 11:31:40;;;;;;;20.33;11.77;;;2.70;99.90;;;;;;4884135;29;20476;-59
2021/12/21 11:34:13;;;;;;;18.63;11.77;;;2.70;99.90;;;;;;4881672;29;20050;-59
2021/12/21 11:39:30;;;;;;;24.60;12.40;;;2.60;99.90;;;;;;4884997;29;20380;-60
2021/12/21 11:41:56;;;;;;;27.17;12.15;;;2.60;99.90;;;;;;4886572;29;20084;-59
2021/12/21 11:44:43;;;;;;;20.75;12.38;;;2.50;99.90;;;;;;4883777;29;20064;-60
2021/12/21 11:47:15;;;;;;;20.40;10.70;;;2.50;99.90;;;;;;4884333;29;20171;-60
2021/12/21 11:49:50;;;;;;;16.67;10.03;;;2.50;99.90;;;;;;4883237;29;20052;-59
2021/12/21 11:52:19;;;;;;;19.55;10.45;;;2.50;99.90;;;;;;4885304;29;20043;-59
2021/12/21 11:54:50;;;;;;;21.70;10.13;;;2.50;99.90;;;;;;4885099;29;20551;-60
2021/12/21 11:57:18;;;;;;;15.93;10.90;;;2.50;99.90;;;;;;4881580;29;20045;-59
2021/12/21 11:59:48;;;;;;;24.73;11.43;;;2.50;99.90;;;;;;4882506;29;20611;-60
2021/12/21 12:02:14;;;;;;;17.83;10.27;;;2.50;99.90;;;;;;4838577;29;20060;-59
2021/12/21 12:04:40;;;;;;;15.45;9.30;;;2.50;99.90;;;;;;4879748;29;20055;-59
2021/12/21 12:07:18;;;;;;;18.48;10.80;;;2.60;99.90;;;;;;4857917;29;20420;-60
2021/12/21 12:09:45;;;;;;;16.42;9.38;;;2.50;99.90;;;;;;4875264;29;20078;-60
2021/12/21 12:12:16;;;;;;;16.27;9.70;;;2.50;99.90;;;;;;4880279;29;20052;-60
2021/12/21 12:14:44;;;;;;;16.60;9.70;;;2.50;99.90;;;;;;4879493;29;20041;-60
2021/12/21 12:17:22;;;;;;;15.70;9.52;;;2.40;99.90;;;;;;4881046;29;20049;-60
2021/12/21 12:20:04;;;;;;;17.75;9.10;;;2.50;99.90;;;;;;4878575;29;20048;-59
2021/12/21 12:22:40;;;;;;;18.50;8.70;;;2.50;99.90;;;;;;4879739;29;20048;-58
2021/12/21 12:25:15;;;;;;;23.08;9.23;;;2.50;99.90;;;;;;4880677;29;20055;-59
2021/12/21 12:27:49;;;;;;;15.90;8.48;;;2.50;99.90;;;;;;4880700;29;20419;-59
2021/12/21 12:30:19;;;;;;;13.90;8.73;;;2.50;99.90;;;;;;4864128;29;20083;-59
2021/12/21 12:32:51;;;;;;;18.92;8.82;;;2.40;99.90;;;;;;4849664;29;20052;-60
2021/12/21 12:35:25;;;;;;;14.15;9.18;;;2.40;99.90;;;;;;4880229;29;20044;-60
2021/12/21 12:37:55;;;;;;;12.18;7.95;;;2.40;99.90;;;;;;4881718;29;20044;-59
2021/12/21 12:40:26;;;;;;;16.88;9.30;;;2.40;99.90;;;;;;4875446;29;20139;-60
2021/12/21 12:42:55;;;;;;;11.75;8.40;;;2.50;99.90;;;;;;4867279;29;20053;-59
2021/12/21 12:45:23;;;;;;;14.07;7.93;;;2.50;99.90;;;;;;4880331;29;20464;-59
2021/12/21 12:47:52;;;;;;;20.20;8.20;;;2.50;99.90;;;;;;4862846;29;20072;-59
2021/12/21 12:50:36;;;;;;;18.77;8.07;;;2.50;99.90;;;;;;4879505;29;20144;-59
2021/12/21 12:53:05;;;;;;;17.30;8.02;;;2.50;99.90;;;;;;4868711;29;20629;-59
2021/12/21 12:55:49;;;;;;;16.80;8.35;;;2.60;99.90;;;;;;4864825;29;20255;-59
2021/12/21 12:58:21;;;;;;;15.23;8.40;;;2.70;99.90;;;;;;4881219;29;20048;-60
2021/12/21 13:01:23;;;;;;;15.02;8.73;;;2.80;99.90;;;;;;4881558;29;20418;-60
2021/12/21 13:03:50;;;;;;;15.20;7.88;;;2.90;99.90;;;;;;4849450;29;20055;-60
2021/12/21 13:06:26;;;;;;;12.88;8.70;;;3.10;99.90;;;;;;4852761;29;20369;-60
2021/12/21 13:08:52;;;;;;;19.27;8.27;;;3.30;99.90;;;;;;4880306;29;20111;-59
2021/12/21 13:11:25;;;;;;;14.80;8.63;;;3.40;99.90;;;;;;4874232;29;20060;-60
2021/12/21 13:13:53;;;;;;;11.68;8.13;;;3.60;99.90;;;;;;4880971;29;20040;-59
2021/12/21 13:16:25;;;;;;;18.33;8.10;;;3.80;99.90;;;;;;4863330;29;20071;-60
2021/12/21 13:18:54;;;;;;;18.30;8.73;;;4.00;99.90;;;;;;4879498;29;20056;-60
2021/12/21 13:21:36;;;;;;;15.57;8.20;;;4.10;99.90;;;;;;4877628;29;20387;-60
2021/12/21 13:24:05;;;;;;;13.07;7.40;;;4.30;99.90;;;;;;4878457;29;20052;-60
2021/12/21 13:26:37;;;;;;;12.88;7.90;;;4.30;99.90;;;;;;4864783;29;20052;-59
2021/12/21 13:29:05;;;;;;;13.63;7.18;;;4.40;99.90;;;;;;4861728;29;20571;-60
2021/12/21 13:31:32;;;;;;;16.77;8.05;;;4.50;99.90;;;;;;4864538;29;20155;-60
2021/12/21 13:33:59;;;;;;;13.65;7.85;;;4.50;99.90;;;;;;4851398;29;20063;-58
2021/12/21 13:36:45;;;;;;;10.82;6.63;;;4.60;99.90;;;;;;4866216;29;20578;-59